Adams, Illinois
Current Conditions -  °F | °C
As of 1:54 PM on Monday 26 Jan 2015 (Local Time) from KUIN Reporting Station
Overcast Overcast  
Wind Chill: 32°   Ceiling: 1800
Heat Index: 37°   Visibility: 9mi
Dew Point: 31°   Wind: 6mph
Humidity: 79%   Direction: 220°SW
Pressure: 29.84"   Gusts: NA
Location:  39.8875°N, 91.0352°W
Report Text: KUIN 261954Z AUTO 22005KT 9SM BKN018 OVC024 03/M01 A2984 RMK AO2 SLP110 T00281006
Loading
Personal Weather Stations






























Interactive Weather Map New forecast layout! Learn more

10-Day Weather Forecast

Advertisements
Track Severe Weather on mobile